Terminal Aerodrome Forecast
Issued by NWS

Home | Current Version | Previous Version | Graphics & Text | Print | Product List | Glossary On
Versions: 1 2 3 4 5 6 7 8 9 10 11 12 13 14 15 16
000
FTUS43 KBIS 180537
TAFJMS
TAF
KJMS 180537Z 1806/1906 04009KT P6SM SCT020
     FM181000 07007KT P6SM VCTS BKN100CB
     FM181800 08007KT P6SM BKN120=

USA.gov is the U.S. government's official web portal to all federal, state and local government web resources and services.